createdAt,value
2022-11-23T00:00:35.068Z,20.40
2022-11-23T00:03:24.350Z,25.38
2022-11-23T00:05:54.847Z,24.58
2022-11-23T00:08:24.318Z,20.98
2022-11-23T00:10:53.466Z,19.95
2022-11-23T00:13:22.834Z,20.75
2022-11-23T00:15:52.030Z,21.08
2022-11-23T00:18:21.324Z,20.55
2022-11-23T00:20:50.441Z,21.67
2022-11-23T00:23:21.201Z,21.40
2022-11-23T00:25:50.298Z,21.77
2022-11-23T00:28:19.633Z,17.75
2022-11-23T00:30:51.274Z,18.98
2022-11-23T00:33:20.735Z,22.08
2022-11-23T00:35:49.865Z,19.63
2022-11-23T00:38:20.718Z,20.60
2022-11-23T00:40:51.272Z,20.23
2022-11-23T00:43:20.672Z,23.33
2022-11-23T00:45:51.092Z,21.38
2022-11-23T00:48:20.362Z,22.17
2022-11-23T00:50:49.581Z,21.52
2022-11-23T00:53:20.362Z,20.85
2022-11-23T00:55:53.631Z,19.58
2022-11-23T00:58:23.021Z,23.90
2022-11-23T01:01:00.801Z,21.92
2022-11-23T01:03:31.320Z,22.08
2022-11-23T01:06:06.592Z,19.67
2022-11-23T01:08:37.527Z,19.80
2022-11-23T01:11:09.281Z,19.65
2022-11-23T01:13:39.218Z,21.15
2022-11-23T01:16:12.026Z,23.55
2022-11-23T01:18:41.460Z,19.17
2022-11-23T01:21:10.615Z,27.67
2022-11-23T01:23:43.416Z,23.80
2022-11-23T01:26:13.451Z,25.45
2022-11-23T01:28:42.832Z,23.77
2022-11-23T01:31:13.974Z,20.63
2022-11-23T01:33:46.736Z,23.02
2022-11-23T01:36:18.268Z,21.08
2022-11-23T01:38:50.121Z,22.83
2022-11-23T01:41:22.140Z,23.90
2022-11-23T01:43:52.030Z,24.38
2022-11-23T01:46:21.598Z,21.10
2022-11-23T01:48:54.335Z,20.77
2022-11-23T01:51:30.229Z,23.90
2022-11-23T01:54:04.561Z,25.33
2022-11-23T01:56:38.922Z,20.60
2022-11-23T01:59:12.277Z,20.23
2022-11-23T02:01:41.401Z,24.70
2022-11-23T02:04:14.396Z,24.40
2022-11-23T02:06:49.160Z,22.25
2022-11-23T02:09:21.297Z,27.73
2022-11-23T02:11:50.430Z,26.38
2022-11-23T02:14:23.348Z,26.65
2022-11-23T02:16:56.547Z,21.52
2022-11-23T02:19:37.413Z,20.63
2022-11-23T02:22:13.605Z,21.48
2022-11-23T02:24:50.705Z,18.75
2022-11-23T02:27:22.486Z,22.35
2022-11-23T02:29:53.628Z,20.77
2022-11-23T02:32:24.960Z,21.17
2022-11-23T02:34:58.547Z,21.98
2022-11-23T02:37:27.708Z,19.13
2022-11-23T02:40:00.922Z,22.13
2022-11-23T02:42:32.973Z,20.05
2022-11-23T02:45:10.123Z,21.13
2022-11-23T02:47:39.626Z,20.55
2022-11-23T02:50:11.756Z,22.83
2022-11-23T02:52:41.511Z,19.48
2022-11-23T02:55:11.829Z,18.75
2022-11-23T02:57:42.323Z,20.35
2022-11-23T03:00:14.259Z,18.60
2022-11-23T03:02:45.046Z,18.98
2022-11-23T03:05:14.650Z,19.02
2022-11-23T03:07:44.016Z,19.05
2022-11-23T03:10:15.410Z,18.08
2022-11-23T03:12:47.703Z,17.58
2022-11-23T03:15:17.352Z,18.63
2022-11-23T03:17:46.634Z,18.95
2022-11-23T03:20:18.734Z,18.42
2022-11-23T03:22:51.396Z,18.40
2022-11-23T03:25:22.581Z,19.90
2022-11-23T03:27:56.578Z,19.90
2022-11-23T03:35:39.033Z,18.48
2022-11-23T03:38:23.855Z,18.30
2022-11-23T03:40:54.533Z,19.00
2022-11-23T03:43:30.689Z,19.15
2022-11-23T03:45:59.948Z,18.65
2022-11-23T03:48:29.348Z,18.38
2022-11-23T03:50:58.573Z,17.20
2022-11-23T03:53:28.041Z,16.80
2022-11-23T03:55:58.278Z,18.50
2022-11-23T03:58:32.112Z,17.90
2022-11-23T04:01:01.998Z,17.40
2022-11-23T04:03:31.527Z,16.98
2022-11-23T04:06:03.220Z,16.75
2022-11-23T04:08:51.028Z,16.88
2022-11-23T04:11:31.140Z,17.05
2022-11-23T04:14:01.970Z,15.75
2022-11-23T04:16:31.605Z,15.85
2022-11-23T04:19:01.149Z,16.65
2022-11-23T04:21:30.294Z,17.77
2022-11-23T04:24:00.731Z,18.23
2022-11-23T04:26:33.125Z,15.57
2022-11-23T04:29:04.079Z,18.50
2022-11-23T04:31:35.548Z,16.58
2022-11-23T04:34:14.886Z,18.65
2022-11-23T04:36:44.600Z,18.38
2022-11-23T04:39:15.860Z,18.70
2022-11-23T04:42:12.356Z,18.42
2022-11-23T04:44:43.369Z,16.90
2022-11-23T04:47:13.061Z,19.65
2022-11-23T04:49:42.589Z,17.20
2022-11-23T04:52:12.412Z,16.27
2022-11-23T04:54:47.645Z,18.45
2022-11-23T04:57:16.883Z,18.15
2022-11-23T04:59:49.394Z,15.57
2022-11-23T05:02:18.667Z,19.20
2022-11-23T05:04:54.264Z,19.85
2022-11-23T05:07:27.184Z,18.50
2022-11-23T05:10:00.666Z,20.80
2022-11-23T05:12:29.738Z,21.67
2022-11-23T05:15:02.265Z,21.88
2022-11-23T05:17:36.944Z,26.05
2022-11-23T05:20:12.404Z,23.15
2022-11-23T05:22:46.401Z,22.48
2022-11-23T05:25:18.960Z,20.67
2022-11-23T05:27:52.221Z,19.98
2022-11-23T05:30:23.217Z,22.60
2022-11-23T05:32:53.103Z,19.67
2022-11-23T05:35:24.351Z,21.42
2022-11-23T05:37:53.793Z,21.90
2022-11-23T05:40:23.553Z,26.88
2022-11-23T05:42:57.914Z,23.92
2022-11-23T05:45:28.961Z,21.17
2022-11-23T05:48:00.877Z,22.40
2022-11-23T05:50:46.674Z,28.10
2022-11-23T05:53:31.940Z,28.27
2022-11-23T05:56:10.121Z,29.48
2022-11-23T05:58:48.690Z,27.02
2022-11-23T06:01:19.644Z,29.13
2022-11-23T06:03:50.587Z,26.08
2022-11-23T06:06:20.526Z,25.10
2022-11-23T06:08:49.725Z,27.83
2022-11-23T06:11:22.817Z,23.17
2022-11-23T06:13:51.930Z,22.73
2022-11-23T06:16:23.300Z,22.58
2022-11-23T06:19:02.840Z,27.38
2022-11-23T06:21:32.457Z,26.80
2022-11-23T06:24:02.578Z,28.40
2022-11-23T06:26:33.946Z,22.83
2022-11-23T06:29:03.236Z,26.23
2022-11-23T06:31:34.560Z,30.58
2022-11-23T06:34:03.988Z,24.05
2022-11-23T06:36:35.456Z,28.23
2022-11-23T06:39:05.158Z,37.20
2022-11-23T06:41:35.204Z,26.95
2022-11-23T06:44:05.480Z,29.35
2022-11-23T06:46:43.756Z,25.35
2022-11-23T06:49:12.788Z,24.38
2022-11-23T06:51:44.398Z,25.05
2022-11-23T06:54:13.721Z,23.08
2022-11-23T06:56:43.957Z,25.70
2022-11-23T06:59:13.645Z,25.25
2022-11-23T07:01:44.668Z,25.05
2022-11-23T07:04:16.028Z,24.45
2022-11-23T07:06:50.408Z,25.08
2022-11-23T07:09:30.023Z,23.80
2022-11-23T07:12:13.127Z,28.00
2022-11-23T07:14:42.289Z,22.80
2022-11-23T07:17:17.393Z,24.00
2022-11-23T07:19:48.453Z,24.13
2022-11-23T07:22:18.069Z,23.58
2022-11-23T07:24:47.298Z,25.10
2022-11-23T07:27:18.513Z,27.42
2022-11-23T07:29:47.882Z,26.85
2022-11-23T07:32:18.561Z,26.00
2022-11-23T07:34:47.784Z,24.95
2022-11-23T07:37:18.136Z,32.28
2022-11-23T07:39:58.518Z,28.08
2022-11-23T07:42:36.842Z,26.17
2022-11-23T07:45:10.474Z,28.83
2022-11-23T07:47:42.880Z,25.98
2022-11-23T07:50:13.809Z,25.65
2022-11-23T07:52:43.135Z,26.42
2022-11-23T07:55:12.148Z,29.80
2022-11-23T07:57:41.427Z,27.25
2022-11-23T08:00:12.223Z,26.48
2022-11-23T08:03:04.169Z,28.08
2022-11-23T08:05:35.723Z,24.27
2022-11-23T08:08:05.537Z,25.58
2022-11-23T08:10:38.771Z,25.40
2022-11-23T08:13:11.385Z,19.55
2022-11-23T08:15:40.507Z,20.90
2022-11-23T08:18:11.639Z,23.98
2022-11-23T08:20:40.973Z,21.95
2022-11-23T08:23:10.394Z,22.45
2022-11-23T08:25:39.693Z,23.05
2022-11-23T08:28:09.124Z,23.25
2022-11-23T08:30:38.335Z,24.55
2022-11-23T08:33:09.650Z,22.13
2022-11-23T08:35:41.342Z,24.17
2022-11-23T08:38:12.356Z,23.67
2022-11-23T08:40:41.632Z,23.65
2022-11-23T08:43:11.013Z,23.83
2022-11-23T08:45:40.289Z,21.40
2022-11-23T08:48:10.450Z,24.02
2022-11-23T08:50:41.149Z,24.30
2022-11-23T08:53:11.338Z,24.45
2022-11-23T08:55:40.718Z,23.20
2022-11-23T08:58:13.321Z,21.83
2022-11-23T09:00:42.690Z,27.25
2022-11-23T09:03:12.031Z,24.10
2022-11-23T09:05:42.591Z,23.45
2022-11-23T09:08:12.068Z,25.00
2022-11-23T09:10:41.258Z,27.13
2022-11-23T09:13:10.757Z,23.73
2022-11-23T09:15:39.957Z,29.92
2022-11-23T09:18:10.266Z,28.10
2022-11-23T09:20:42.792Z,23.98
2022-11-23T09:23:14.250Z,25.40
2022-11-23T09:25:47.814Z,22.77
2022-11-23T09:28:19.584Z,23.05
2022-11-23T09:30:48.960Z,21.70
2022-11-23T09:33:18.362Z,22.92
2022-11-23T09:35:49.031Z,22.35
2022-11-23T09:38:18.426Z,20.92
2022-11-23T09:40:47.611Z,22.63
2022-11-23T09:43:47.934Z,22.38
2022-11-23T09:46:25.971Z,19.40
2022-11-23T09:49:10.785Z,21.92
2022-11-23T09:51:43.339Z,22.58
2022-11-23T09:54:29.982Z,18.55
2022-11-23T09:57:01.967Z,22.90
2022-11-23T09:59:42.124Z,22.15
2022-11-23T10:02:20.876Z,21.45
2022-11-23T10:04:52.059Z,24.95
2022-11-23T10:07:48.587Z,23.05
2022-11-23T10:10:35.402Z,23.33
2022-11-23T10:13:17.623Z,21.10
2022-11-23T10:16:01.974Z,20.27
2022-11-23T10:18:44.033Z,21.75
2022-11-23T10:21:24.594Z,22.83
2022-11-23T10:24:05.557Z,20.60
2022-11-23T10:26:38.890Z,20.88
2022-11-23T10:29:14.968Z,21.83
2022-11-23T10:31:54.027Z,21.67
2022-11-23T10:34:39.276Z,20.75
2022-11-23T10:37:13.125Z,21.77
2022-11-23T10:39:43.812Z,21.25
2022-11-23T10:42:23.919Z,20.13
2022-11-23T10:44:55.662Z,20.27
2022-11-23T10:47:41.039Z,23.38
2022-11-23T10:50:25.892Z,24.50
2022-11-23T10:52:58.188Z,21.75
2022-11-23T10:55:31.446Z,19.88
2022-11-23T10:58:01.853Z,21.00
2022-11-23T11:00:31.785Z,18.35
2022-11-23T11:03:03.494Z,19.67
2022-11-23T11:08:29.041Z,17.63
2022-11-23T11:11:06.221Z,21.13
2022-11-23T11:13:43.869Z,21.13
2022-11-23T11:16:22.739Z,19.92
2022-11-23T11:18:52.413Z,20.70
2022-11-23T11:21:23.763Z,20.45
2022-11-23T11:23:55.794Z,20.50
2022-11-23T11:26:28.208Z,20.20
2022-11-23T11:28:59.274Z,19.63
2022-11-23T11:31:43.569Z,19.55
2022-11-23T11:34:24.927Z,19.38
2022-11-23T11:37:05.482Z,20.95
2022-11-23T11:39:43.532Z,20.75
2022-11-23T11:42:21.064Z,19.98
2022-11-23T11:44:55.607Z,21.83
2022-11-23T11:47:32.319Z,20.17
2022-11-23T11:50:12.411Z,20.52
2022-11-23T11:52:43.871Z,22.27
2022-11-23T11:55:17.712Z,21.63
2022-11-23T11:57:51.284Z,20.73
2022-11-23T12:00:22.003Z,20.52
2022-11-23T12:03:06.620Z,20.08
2022-11-23T12:05:43.413Z,26.48
2022-11-23T12:08:17.700Z,23.90
2022-11-23T12:10:51.984Z,20.42
2022-11-23T12:13:25.897Z,21.33
2022-11-23T12:16:03.601Z,22.45
2022-11-23T12:18:55.460Z,20.17
2022-11-23T12:21:55.697Z,21.50
2022-11-23T12:24:41.552Z,20.33
2022-11-23T12:27:21.200Z,20.45
2022-11-23T12:30:05.310Z,17.95
2022-11-23T12:32:44.995Z,19.73
2022-11-23T12:35:40.429Z,24.42
2022-11-23T12:38:21.576Z,20.02
2022-11-23T12:41:16.373Z,19.40
2022-11-23T12:44:05.048Z,20.67
2022-11-23T12:46:45.999Z,19.92
2022-11-23T12:49:36.128Z,21.85
2022-11-23T12:52:21.879Z,18.85
2022-11-23T12:55:00.702Z,18.30
2022-11-23T12:57:40.315Z,17.88
2022-11-23T13:00:17.413Z,20.83
2022-11-23T13:07:26.281Z,20.35
2022-11-23T13:10:25.961Z,17.42
2022-11-23T13:13:21.660Z,18.50
2022-11-23T13:16:16.598Z,17.98
2022-11-23T13:19:17.342Z,16.90
2022-11-23T13:21:51.524Z,17.02
2022-11-23T13:24:29.505Z,17.95
2022-11-23T13:27:43.706Z,18.00
2022-11-23T13:30:35.593Z,19.67
2022-11-23T13:33:35.842Z,16.38
2022-11-23T13:36:15.274Z,18.02
2022-11-23T13:38:48.725Z,21.85
2022-11-23T13:41:57.999Z,18.70
2022-11-23T13:44:30.537Z,18.88
2022-11-23T13:47:08.922Z,21.73
2022-11-23T13:49:42.944Z,24.77
2022-11-23T13:52:27.421Z,21.40
2022-11-23T13:55:05.344Z,20.92
2022-11-23T13:57:36.908Z,18.30
2022-11-23T14:00:43.227Z,17.75
2022-11-23T14:03:48.971Z,16.05
2022-11-23T14:06:33.785Z,17.73
2022-11-23T14:09:12.588Z,17.58
2022-11-23T14:11:52.451Z,15.70
2022-11-23T14:14:24.753Z,15.80
2022-11-23T14:17:25.414Z,18.27
2022-11-23T14:20:20.319Z,16.23
2022-11-23T14:23:05.584Z,15.88
2022-11-23T14:25:50.429Z,19.33
2022-11-23T14:28:35.482Z,16.08
2022-11-23T14:31:19.060Z,17.80
2022-11-23T14:33:55.817Z,15.93
2022-11-23T14:36:36.597Z,18.35
2022-11-23T14:39:47.268Z,19.35
2022-11-23T14:42:22.322Z,17.48
2022-11-23T14:44:52.097Z,18.08
2022-11-23T14:47:28.850Z,21.58
2022-11-23T14:49:58.586Z,21.20
2022-11-23T14:52:30.590Z,21.15
2022-11-23T14:55:02.743Z,18.30
2022-11-23T14:57:41.739Z,18.23
2022-11-23T15:00:28.697Z,21.08
2022-11-23T15:03:04.585Z,22.35
2022-11-23T15:05:47.471Z,22.23
2022-11-23T15:08:21.332Z,19.80
2022-11-23T15:11:01.485Z,21.15
2022-11-23T15:13:42.936Z,23.90
2022-11-23T15:16:15.913Z,27.92
2022-11-23T15:18:46.017Z,26.17
2022-11-23T15:21:26.528Z,23.98
2022-11-23T15:23:58.356Z,28.63
2022-11-23T15:29:35.353Z,24.30
2022-11-23T15:32:36.297Z,29.80
2022-11-23T15:35:08.709Z,22.10
2022-11-23T15:37:44.068Z,23.80
2022-11-23T15:40:18.353Z,31.27
2022-11-23T15:42:48.634Z,28.05
2022-11-23T15:45:39.240Z,22.00
2022-11-23T15:48:16.167Z,20.92
2022-11-23T15:50:50.624Z,24.25
2022-11-23T15:53:20.593Z,22.90
2022-11-23T15:55:51.428Z,21.25
2022-11-23T15:58:22.624Z,21.20
2022-11-23T16:00:56.971Z,19.17
2022-11-23T16:03:33.544Z,19.63
2022-11-23T16:06:29.475Z,17.98
2022-11-23T16:08:58.652Z,19.92
2022-11-23T16:11:34.740Z,23.15
2022-11-23T16:14:18.184Z,31.38
2022-11-23T16:17:00.333Z,24.38
2022-11-23T16:19:31.683Z,23.85
2022-11-23T16:22:04.540Z,23.88
2022-11-23T16:24:36.807Z,25.30
2022-11-23T16:27:15.111Z,27.67
2022-11-23T16:29:44.451Z,27.15
2022-11-23T16:32:26.900Z,20.98
2022-11-23T16:34:59.004Z,25.52
2022-11-23T16:37:29.001Z,24.23
2022-11-23T16:39:58.041Z,21.38
2022-11-23T16:42:27.634Z,23.25
2022-11-23T16:44:56.799Z,30.60
2022-11-23T16:47:30.167Z,30.48
2022-11-23T16:49:59.594Z,33.78
2022-11-23T16:52:29.023Z,25.17
2022-11-23T16:54:58.080Z,28.50
2022-11-23T16:57:34.681Z,26.08
2022-11-23T17:00:05.942Z,26.40
2022-11-23T17:02:36.950Z,38.30
2022-11-23T17:05:14.231Z,37.03
2022-11-23T17:07:43.876Z,46.08
2022-11-23T17:10:13.872Z,30.67
2022-11-23T17:12:51.610Z,28.60
2022-11-23T17:15:23.443Z,26.30
2022-11-23T17:17:54.390Z,31.83
2022-11-23T17:20:24.758Z,35.17
2022-11-23T17:23:00.154Z,29.45
2022-11-23T17:25:30.548Z,27.27
2022-11-23T17:28:01.435Z,27.65
2022-11-23T17:30:31.438Z,25.17
2022-11-23T17:33:02.273Z,30.52
2022-11-23T17:35:35.377Z,25.05
2022-11-23T17:38:08.013Z,23.98
2022-11-23T17:40:37.131Z,24.00
2022-11-23T17:43:06.630Z,30.25
2022-11-23T17:45:35.990Z,34.45
2022-11-23T17:48:10.840Z,37.05
2022-11-23T17:50:40.203Z,28.52
2022-11-23T17:53:11.525Z,27.65
2022-11-23T17:55:41.414Z,25.92
2022-11-23T17:58:12.777Z,27.50
2022-11-23T18:00:42.347Z,24.33
2022-11-23T18:03:13.195Z,30.90
2022-11-23T18:05:42.385Z,32.03
2022-11-23T18:08:12.524Z,27.75
2022-11-23T18:10:41.580Z,32.13
2022-11-23T18:13:11.127Z,26.73
2022-11-23T18:15:40.584Z,28.73
2022-11-23T18:18:10.111Z,28.80
2022-11-23T18:20:40.655Z,26.95
2022-11-23T18:23:10.278Z,32.20
2022-11-23T18:25:39.522Z,30.85
2022-11-23T18:28:08.932Z,33.05
2022-11-23T18:30:38.278Z,33.15
2022-11-23T18:33:07.809Z,27.63
2022-11-23T18:35:36.980Z,29.23
2022-11-23T18:38:08.028Z,32.97
2022-11-23T18:40:37.321Z,29.88
2022-11-23T18:43:06.672Z,28.77
2022-11-23T18:45:35.924Z,29.80
2022-11-23T18:48:07.901Z,25.80
2022-11-23T18:50:37.284Z,28.58
2022-11-23T18:53:08.284Z,28.92
2022-11-23T18:55:37.372Z,25.33
2022-11-23T18:58:07.420Z,23.73
2022-11-23T19:00:36.619Z,24.95
2022-11-23T19:03:06.208Z,23.77
2022-11-23T19:05:37.113Z,25.38
2022-11-23T19:08:09.142Z,27.05
2022-11-23T19:10:39.646Z,25.08
2022-11-23T19:13:09.284Z,22.05
2022-11-23T19:15:38.956Z,24.40
2022-11-23T19:18:08.431Z,23.65
2022-11-23T19:20:37.689Z,24.65
2022-11-23T19:23:08.529Z,22.45
2022-11-23T19:25:37.671Z,24.88
2022-11-23T19:28:07.257Z,24.17
2022-11-23T19:30:36.400Z,26.20
2022-11-23T19:33:05.897Z,24.25
2022-11-23T19:35:35.385Z,27.42
2022-11-23T19:38:04.818Z,24.83
2022-11-23T19:40:35.290Z,26.35
2022-11-23T19:43:05.006Z,24.67
2022-11-23T19:45:34.155Z,26.40
2022-11-23T19:48:03.564Z,26.25
2022-11-23T19:50:32.721Z,31.40
2022-11-23T19:53:12.284Z,25.27
2022-11-23T19:55:43.024Z,24.25
2022-11-23T19:58:12.601Z,25.88
2022-11-23T20:00:45.619Z,28.30
2022-11-23T20:03:15.507Z,29.48
2022-11-23T20:05:56.409Z,36.42
2022-11-23T20:08:25.743Z,26.77
2022-11-23T20:10:56.684Z,30.50
2022-11-23T20:13:26.441Z,31.08
2022-11-23T20:15:55.624Z,28.73
2022-11-23T20:18:29.555Z,26.50
2022-11-23T20:20:59.146Z,27.08
2022-11-23T20:23:28.610Z,27.00
2022-11-23T20:25:59.836Z,28.40
2022-11-23T20:28:29.538Z,25.58
2022-11-23T20:31:03.799Z,24.05
2022-11-23T20:33:33.419Z,26.10
2022-11-23T20:36:10.349Z,27.95
2022-11-23T20:38:40.131Z,31.60
2022-11-23T20:41:18.872Z,30.80
2022-11-23T20:43:49.990Z,29.73
2022-11-23T20:46:38.309Z,27.30
2022-11-23T20:49:08.628Z,25.77
2022-11-23T20:51:37.968Z,19.27
2022-11-23T20:54:07.405Z,24.42
2022-11-23T20:56:39.881Z,20.20
2022-11-23T20:59:09.301Z,20.30
2022-11-23T21:01:40.575Z,20.40
2022-11-23T21:04:10.526Z,20.77
2022-11-23T21:06:40.335Z,18.33
2022-11-23T21:09:11.237Z,20.50
2022-11-23T21:11:59.486Z,19.92
2022-11-23T21:14:30.657Z,22.27
2022-11-23T21:17:01.324Z,20.02
2022-11-23T21:19:32.021Z,20.75
2022-11-23T21:22:03.902Z,19.50
2022-11-23T21:24:35.412Z,18.42
2022-11-23T21:27:07.952Z,21.35
2022-11-23T21:29:38.086Z,22.05
2022-11-23T21:32:07.427Z,22.98
2022-11-23T21:34:37.312Z,20.35
2022-11-23T21:37:06.673Z,24.50
2022-11-23T21:39:35.917Z,24.70
2022-11-23T21:42:09.764Z,23.10
2022-11-23T21:44:38.782Z,21.98
2022-11-23T21:47:08.185Z,27.80
2022-11-23T21:49:37.584Z,24.55
2022-11-23T21:52:09.008Z,22.70
2022-11-23T21:54:38.137Z,20.05
2022-11-23T21:57:09.134Z,21.83
2022-11-23T21:59:38.537Z,24.50
2022-11-23T22:02:08.198Z,23.65
2022-11-23T22:04:39.095Z,24.65
2022-11-23T22:07:08.731Z,20.52
2022-11-23T22:09:38.161Z,24.25
2022-11-23T22:12:09.196Z,26.05
2022-11-23T22:14:38.435Z,27.67
2022-11-23T22:17:08.022Z,25.75
2022-11-23T22:19:37.354Z,21.17
2022-11-23T22:22:07.568Z,23.08
2022-11-23T22:24:36.715Z,21.30
2022-11-23T22:27:06.261Z,22.08
2022-11-23T22:29:36.940Z,20.70
2022-11-23T22:32:06.656Z,22.48
2022-11-23T22:34:36.140Z,19.13
2022-11-23T22:37:10.401Z,17.92
2022-11-23T22:39:40.143Z,20.27
2022-11-23T22:42:09.729Z,20.95
2022-11-23T22:44:40.485Z,19.77
2022-11-23T22:47:10.552Z,21.08
2022-11-23T22:49:39.881Z,22.05
2022-11-23T22:52:09.352Z,21.58
2022-11-23T22:54:38.649Z,19.30
2022-11-23T22:57:08.261Z,20.35
2022-11-23T22:59:37.449Z,16.90
2022-11-23T23:02:08.437Z,20.73
2022-11-23T23:04:37.994Z,17.48
2022-11-23T23:07:07.581Z,18.15
2022-11-23T23:09:36.802Z,19.08
2022-11-23T23:12:06.764Z,25.30
2022-11-23T23:14:37.007Z,19.55
2022-11-23T23:17:08.064Z,19.85
2022-11-23T23:19:37.666Z,19.92
2022-11-23T23:22:07.442Z,19.83
2022-11-23T23:24:36.988Z,20.33
2022-11-23T23:27:06.387Z,24.15
2022-11-23T23:29:35.552Z,18.50
2022-11-23T23:32:05.281Z,22.00
2022-11-23T23:34:35.877Z,23.20
2022-11-23T23:37:05.340Z,20.23
2022-11-23T23:39:34.678Z,27.15
2022-11-23T23:42:04.228Z,24.60
2022-11-23T23:44:34.452Z,26.48
2022-11-23T23:47:04.229Z,23.67
2022-11-23T23:49:34.787Z,22.83
2022-11-23T23:52:05.772Z,24.42
2022-11-23T23:54:35.168Z,24.23
2022-11-23T23:57:04.860Z,23.33
2022-11-23T23:59:34.021Z,22.42
